Time;durP1;ratioP1;P1;durP2;ratioP2;P2;SDS_P1;SDS_P2;PMS_P1;PMS_P2;Temp;Humidity;BMP_temperature;BMP_pressure;BME280_temperature;BME280_humidity;BME280_pressure;Samples;Min_cycle;Max_cycle;Signal;HPM_P1;HPM_P2
2020/12/13 00:06:14;;;;;;;27.83;13.75;;;4.70;99.90;;;;;;20908217;28;20129;-81
2020/12/13 00:16:15;;;;;;;22.13;12.43;;;4.70;99.90;;;;;;20921610;28;20032;-81
2020/12/13 00:26:16;;;;;;;28.57;15.00;;;4.90;99.90;;;;;;20936080;28;20522;-79
2020/12/13 00:36:18;;;;;;;34.78;16.05;;;5.00;99.90;;;;;;20943599;28;20048;-78
2020/12/13 00:46:19;;;;;;;;;;;5.20;99.90;;;;;;20934390;28;20037;-80
2020/12/13 00:56:20;;;;;;;23.58;13.43;;;5.20;99.90;;;;;;20939218;28;19908;-81
2020/12/13 01:06:26;;;;;;;28.15;13.63;;;5.20;99.90;;;;;;20937050;28;20035;-80
2020/12/13 01:16:28;;;;;;;23.77;13.35;;;5.20;99.90;;;;;;20941544;28;20029;-79
2020/12/13 01:26:28;;;;;;;27.63;15.07;;;5.20;99.90;;;;;;20940581;28;20503;-81
2020/12/13 01:36:29;;;;;;;25.60;13.20;;;5.20;99.90;;;;;;20924356;28;20090;-81
2020/12/13 01:46:31;;;;;;;31.57;17.17;;;5.20;99.90;;;;;;20939319;28;20028;-81
2020/12/13 01:56:33;;;;;;;25.60;13.75;;;5.20;99.90;;;;;;20941218;28;20373;-80
2020/12/13 02:06:35;;;;;;;32.17;15.65;;;5.20;99.90;;;;;;20940157;28;20025;-81
2020/12/13 02:16:36;;;;;;;29.33;15.45;;;5.10;99.90;;;;;;20934630;28;20399;-79
2020/12/13 02:26:42;;;;;;;28.43;14.13;;;5.10;99.90;;;;;;20942549;28;20025;-80
2020/12/13 02:36:42;;;;;;;29.55;15.32;;;5.20;99.90;;;;;;20948630;28;20037;-79
2020/12/13 02:46:43;;;;;;;24.90;13.10;;;5.00;99.90;;;;;;20941169;28;20082;-79
2020/12/13 02:56:44;;;;;;;24.13;11.07;;;5.00;99.90;;;;;;20954051;28;20031;-79
2020/12/13 03:06:45;;;;;;;20.67;10.27;;;5.10;99.90;;;;;;20952191;28;20037;-76
2020/12/13 03:16:46;;;;;;;212.03;17.60;;;5.10;99.90;;;;;;20943023;28;20092;-80
2020/12/13 03:26:46;;;;;;;77.60;13.13;;;5.10;99.90;;;;;;20939127;28;20037;-77
2020/12/13 03:36:48;;;;;;;23.20;11.77;;;5.00;99.90;;;;;;20938534;28;20025;-80
2020/12/13 03:46:49;;;;;;;20.37;10.73;;;5.00;99.90;;;;;;20784012;22;20448;-79
2020/12/13 03:56:49;;;;;;;17.93;10.03;;;5.10;99.90;;;;;;20762836;28;20124;-80
2020/12/13 04:06:50;;;;;;;16.83;9.17;;;5.10;99.90;;;;;;20766593;28;20030;-82
2020/12/13 04:16:51;;;;;;;15.43;8.17;;;5.10;99.90;;;;;;20766088;28;20038;-80
2020/12/13 04:26:52;;;;;;;19.67;10.40;;;5.20;99.90;;;;;;20763789;28;20038;-81
2020/12/13 04:36:53;;;;;;;23.40;11.43;;;5.20;99.90;;;;;;20763295;28;20165;-81
2020/12/13 04:46:54;;;;;;;21.23;11.77;;;5.30;99.90;;;;;;20763587;28;20030;-82
2020/12/13 04:56:57;;;;;;;;;;;5.30;99.90;;;;;;20762997;28;20037;-80
2020/12/13 05:06:59;;;;;;;21.07;11.00;;;5.30;99.90;;;;;;20760210;28;20364;-79
2020/12/13 05:17:07;;;;;;;18.80;9.23;;;5.40;99.90;;;;;;20762497;28;20117;-81
2020/12/13 05:27:07;;;;;;;18.25;8.75;;;5.40;99.90;;;;;;20759565;28;20037;-81
2020/12/13 05:37:14;;;;;;;17.20;8.10;;;5.40;99.90;;;;;;20742425;28;20042;-82
2020/12/13 05:57:19;;;;;;;10.70;5.97;;;5.60;99.90;;;;;;20758281;28;20395;-80
2020/12/13 06:07:23;;;;;;;6.20;3.72;;;5.60;99.90;;;;;;20756469;28;20048;-79
2020/12/13 06:17:25;;;;;;;4.60;2.53;;;5.60;99.90;;;;;;20758703;28;20061;-80
2020/12/13 06:27:26;;;;;;;5.25;2.00;;;5.60;99.90;;;;;;20759204;28;20476;-81
2020/12/13 06:37:28;;;;;;;6.23;2.33;;;5.60;99.90;;;;;;20755189;28;20084;-79
2020/12/13 06:47:30;;;;;;;;;;;5.60;99.90;;;;;;20754516;28;20030;-81
2020/12/13 06:57:34;;;;;;;7.83;2.30;;;5.40;99.90;;;;;;20753470;28;19910;-82
2020/12/13 07:07:37;;;;;;;9.68;2.70;;;5.40;99.90;;;;;;20752960;28;20101;-82
2020/12/13 07:17:42;;;;;;;6.10;1.88;;;5.30;99.90;;;;;;20735659;28;20550;-80
2020/12/13 07:27:43;;;;;;;9.95;2.55;;;5.30;99.90;;;;;;20755166;28;20044;-80
2020/12/13 07:37:44;;;;;;;6.63;1.37;;;5.30;99.90;;;;;;20767815;28;20404;-81
2020/12/13 07:48:03;;;;;;;2.47;1.20;;;5.30;99.90;;;;;;20768417;28;20038;-79
2020/12/13 07:58:03;;;;;;;5.53;1.30;;;5.30;99.90;;;;;;20780116;28;20141;-81
2020/12/13 08:08:04;;;;;;;10.37;1.40;;;5.50;99.90;;;;;;20764871;28;20033;-79
2020/12/13 08:18:15;;;;;;;3.60;1.40;;;5.30;99.90;;;;;;20768174;28;20053;-78
2020/12/13 08:28:16;;;;;;;26.92;11.02;;;5.10;99.90;;;;;;20765613;28;20049;-78
2020/12/13 08:38:20;;;;;;;18.05;8.85;;;5.10;99.90;;;;;;20757327;28;20026;-79
2020/12/13 08:48:28;;;;;;;29.55;11.77;;;5.20;99.90;;;;;;20759160;28;20112;-79
2020/12/13 08:58:28;;;;;;;10.43;4.20;;;5.20;99.90;;;;;;20757258;28;20049;-79
2020/12/13 09:08:29;;;;;;;9.00;1.77;;;5.30;99.90;;;;;;20748188;28;20155;-79
2020/12/13 09:18:31;;;;;;;9.10;4.87;;;5.30;99.90;;;;;;20786457;28;20029;-80
2020/12/13 09:28:32;;;;;;;8.93;1.77;;;5.30;99.90;;;;;;20767234;28;20046;-81
2020/12/13 09:38:33;;;;;;;10.43;1.93;;;5.30;99.90;;;;;;20812449;23;20442;-73
2020/12/13 09:48:33;;;;;;;6.30;1.50;;;5.50;99.90;;;;;;20834772;28;20045;-73
2020/12/13 09:58:34;;;;;;;4.13;1.47;;;5.70;99.90;;;;;;20833064;28;20037;-73
2020/12/13 10:18:55;;;;;;;10.82;1.63;;;5.90;99.90;;;;;;20831445;28;20041;-73
2020/12/13 10:28:56;;;;;;;9.88;1.75;;;6.00;99.90;;;;;;20847269;28;20030;-73
2020/12/13 10:38:57;;;;;;;;;;;6.30;99.90;;;;;;20843142;28;20028;-73
2020/12/13 10:48:58;;;;;;;5.87;1.27;;;6.40;99.90;;;;;;20799837;28;19917;-73
2020/12/13 10:58:59;;;;;;;11.23;1.97;;;6.50;99.90;;;;;;20787577;28;20363;-73
2020/12/13 11:09:03;;;;;;;9.30;1.47;;;6.80;99.90;;;;;;20828616;28;20029;-74
2020/12/13 11:19:05;;;;;;;10.60;1.83;;;8.00;99.90;;;;;;20810153;28;20119;-74
2020/12/13 11:29:06;;;;;;;8.70;1.23;;;8.90;99.90;;;;;;20798261;28;20037;-74
2020/12/13 11:39:07;;;;;;;7.17;2.17;;;9.90;99.90;;;;;;20854740;28;20040;-74
2020/12/13 11:49:08;;;;;;;6.27;1.60;;;9.10;99.90;;;;;;20808012;28;20042;-74
2020/12/13 11:59:09;;;;;;;3.03;1.20;;;8.50;99.90;;;;;;20802884;28;20030;-74
2020/12/13 12:09:12;;;;;;;10.98;1.58;;;8.00;99.90;;;;;;20802457;28;20076;-74
2020/12/13 12:19:13;;;;;;;5.72;1.23;;;8.60;99.90;;;;;;20817020;28;21093;-75
2020/12/13 12:29:14;;;;;;;8.13;1.47;;;8.50;99.90;;;;;;20796432;28;20235;-74
2020/12/13 12:39:15;;;;;;;6.67;1.53;;;8.20;99.90;;;;;;20869530;28;20048;-74
2020/12/13 12:49:15;;;;;;;5.40;0.93;;;8.10;99.90;;;;;;20867690;28;20171;-74
2020/12/13 12:59:24;;;;;;;4.37;1.23;;;8.30;99.90;;;;;;20848315;28;20029;-75
2020/12/13 13:09:32;;;;;;;10.00;2.85;;;9.10;99.90;;;;;;20836132;28;20037;-74
2020/12/13 13:19:33;;;;;;;7.00;1.35;;;8.80;99.90;;;;;;20861524;28;20033;-74
2020/12/13 13:29:34;;;;;;;4.27;1.30;;;8.40;99.90;;;;;;20890324;28;20373;-75
2020/12/13 13:39:34;;;;;;;6.37;1.57;;;7.60;99.90;;;;;;20812997;28;20041;-75
2020/12/13 13:59:55;;;;;;;4.78;1.50;;;6.60;99.90;;;;;;20852663;28;20118;-75
2020/12/13 14:09:56;;;;;;;2.33;1.30;;;6.90;99.90;;;;;;20835932;28;20041;-75
2020/12/13 14:19:57;;;;;;;9.07;1.37;;;6.80;99.90;;;;;;20832644;28;20044;-76
2020/12/13 14:29:58;;;;;;;10.27;4.37;;;6.80;99.90;;;;;;20835147;28;20426;-75
2020/12/13 14:39:59;;;;;;;5.80;2.33;;;7.00;99.90;;;;;;20844611;28;20438;-75
2020/12/13 14:49:59;;;;;;;8.37;1.47;;;6.90;99.90;;;;;;20816084;28;20025;-75
2020/12/13 15:00:00;;;;;;;5.07;2.40;;;6.70;99.90;;;;;;20823961;28;20037;-75
2020/12/13 15:10:02;;;;;;;10.63;2.10;;;6.30;99.90;;;;;;20850923;28;20037;-75
2020/12/13 15:20:03;;;;;;;7.90;2.50;;;6.10;99.90;;;;;;20823728;28;20040;-76
2020/12/13 15:30:04;;;;;;;10.43;4.32;;;5.90;99.90;;;;;;20787374;28;20985;-75
2020/12/13 15:40:05;;;;;;;11.33;3.17;;;5.60;99.90;;;;;;20859309;23;20049;-81
2020/12/13 15:50:07;;;;;;;10.07;3.83;;;5.50;99.90;;;;;;20923748;28;20048;-84
2020/12/13 16:00:08;;;;;;;6.90;1.77;;;5.40;99.90;;;;;;20881576;28;20041;-83
2020/12/13 16:10:09;;;;;;;8.07;1.57;;;5.30;99.90;;;;;;20890846;28;20025;-81
2020/12/13 16:20:09;;;;;;;6.37;1.57;;;5.20;99.90;;;;;;20897903;28;20546;-80
2020/12/13 16:30:10;;;;;;;12.83;4.07;;;5.10;99.90;;;;;;20885125;28;20034;-81
2020/12/13 16:40:12;;;;;;;8.30;2.60;;;5.20;99.90;;;;;;20901736;28;20051;-85
2020/12/13 17:00:32;;;;;;;8.57;4.35;;;5.40;99.90;;;;;;20890855;28;20029;-84
2020/12/13 17:10:34;;;;;;;12.17;5.80;;;5.10;99.90;;;;;;20845459;28;20047;-83
2020/12/13 17:20:35;;;;;;;10.35;3.97;;;4.80;99.90;;;;;;20820095;28;20152;-83
2020/12/13 17:30:36;;;;;;;7.93;3.27;;;4.80;99.90;;;;;;20798328;28;20057;-82
2020/12/13 17:40:37;;;;;;;20.20;6.47;;;4.80;99.90;;;;;;20815358;28;20441;-82
2020/12/13 18:00:39;;;;;;;3.90;2.10;;;4.40;99.90;;;;;;20833462;28;20033;-82
2020/12/13 18:10:40;;;;;;;3.83;2.67;;;4.40;99.90;;;;;;20813999;28;20040;-82
2020/12/13 18:20:41;;;;;;;8.60;2.47;;;4.20;99.90;;;;;;20807086;28;20052;-81
2020/12/13 18:30:42;;;;;;;4.88;2.42;;;4.20;99.90;;;;;;20864111;28;20037;-83
2020/12/13 18:40:45;;;;;;;5.77;2.20;;;4.20;99.90;;;;;;20888750;28;20044;-84
2020/12/13 18:50:46;;;;;;;9.13;2.10;;;4.20;99.90;;;;;;20874597;28;21110;-85
2020/12/13 19:00:47;;;;;;;10.60;3.28;;;4.20;99.90;;;;;;20873481;28;20033;-85
2020/12/13 19:10:48;;;;;;;7.53;2.30;;;4.00;99.90;;;;;;20887828;28;20047;-83
2020/12/13 19:20:49;;;;;;;9.43;3.10;;;3.90;99.90;;;;;;20873397;28;20090;-83
2020/12/13 19:30:50;;;;;;;15.67;3.00;;;3.70;99.90;;;;;;20873954;28;20453;-83
2020/12/13 19:40:50;;;;;;;11.77;2.43;;;3.80;99.90;;;;;;20895565;28;20069;-82
2020/12/13 19:50:52;;;;;;;4.13;2.10;;;3.80;99.90;;;;;;20878392;28;20017;-85
2020/12/13 20:00:54;;;;;;;8.23;3.00;;;3.90;99.90;;;;;;20882816;28;20095;-85
2020/12/13 20:10:55;;;;;;;11.13;3.58;;;3.80;99.90;;;;;;20873178;28;20485;-84
2020/12/13 20:32:45;;;;;;;6.20;3.10;;;3.90;99.90;;;;;;20869951;28;20048;-85
2020/12/13 21:22:22;;;;;;;13.70;3.97;;;3.80;99.90;;;;;;20905043;28;20124;-84
2020/12/13 21:52:47;;;;;;;12.95;5.32;;;3.60;99.90;;;;;;20981110;28;20028;-83
2020/12/13 22:33:40;;;;;;;8.88;3.63;;;3.60;99.90;;;;;;20977648;28;20493;-82
2020/12/13 22:43:40;;;;;;;8.23;3.83;;;3.60;99.90;;;;;;20962820;28;20558;-82
2020/12/13 22:53:41;;;;;;;13.90;3.80;;;3.50;99.90;;;;;;20959809;28;20083;-82
2020/12/13 23:03:42;;;;;;;10.50;4.10;;;3.40;99.90;;;;;;20961066;28;20032;-80
2020/12/13 23:13:43;;;;;;;11.00;3.77;;;3.30;99.90;;;;;;20960218;28;20115;-81
2020/12/13 23:23:44;;;;;;;9.50;4.03;;;3.30;99.90;;;;;;20994072;28;20068;-81
2020/12/13 23:33:45;;;;;;;9.75;3.60;;;3.40;99.90;;;;;;20960658;28;20042;-81
2020/12/13 23:43:46;;;;;;;14.27;5.23;;;3.40;99.90;;;;;;20958793;28;20032;-81
2020/12/13 23:53:47;;;;;;;7.73;5.20;;;3.40;99.90;;;;;;20959783;28;20028;-81
